createdAt,value
2022-09-03T00:06:21.134Z,14.43
2022-09-03T00:16:54.740Z,14.29
2022-09-03T00:27:27.549Z,14.25
2022-09-03T00:37:57.578Z,14.22
2022-09-03T00:48:31.845Z,14.18
2022-09-03T00:59:11.943Z,14.13
2022-09-03T01:09:51.906Z,13.95
2022-09-03T01:20:43.125Z,13.78
2022-09-03T01:31:27.424Z,13.73
2022-09-03T01:42:20.408Z,13.49
2022-09-03T01:52:57.746Z,13.41
2022-09-03T02:03:35.261Z,13.23
2022-09-03T02:14:10.445Z,13.19
2022-09-03T02:24:39.417Z,13.23
2022-09-03T02:35:09.650Z,13.01
2022-09-03T02:45:43.828Z,12.91
2022-09-03T02:56:13.598Z,12.86
2022-09-03T03:06:42.606Z,12.86
2022-09-03T03:17:16.765Z,12.86
2022-09-03T03:27:45.842Z,12.79
2022-09-03T03:38:14.785Z,12.55
2022-09-03T03:48:44.254Z,12.46
2022-09-03T03:59:13.499Z,12.47
2022-09-03T04:09:43.212Z,12.52
2022-09-03T04:20:13.295Z,12.63
2022-09-03T04:30:42.486Z,12.51
2022-09-03T04:41:16.783Z,12.34
2022-09-03T04:51:45.820Z,12.44
2022-09-03T05:02:15.937Z,12.43
2022-09-03T05:12:45.350Z,12.44
2022-09-03T05:23:14.723Z,12.56
2022-09-03T05:33:45.604Z,13.07
2022-09-03T05:44:15.003Z,13.97
2022-09-03T05:54:44.146Z,14.83
2022-09-03T06:05:13.424Z,15.55
2022-09-03T06:15:42.769Z,16.31
2022-09-03T06:26:13.235Z,16.90
2022-09-03T06:36:42.772Z,17.35
2022-09-03T06:47:11.972Z,17.73
2022-09-03T06:57:41.059Z,17.99
2022-09-03T07:08:10.878Z,18.46
2022-09-03T07:18:40.751Z,18.74
2022-09-03T07:29:10.123Z,18.87
2022-09-03T07:39:39.301Z,18.95
2022-09-03T07:50:09.787Z,18.79
2022-09-03T08:00:43.310Z,18.62
2022-09-03T08:11:14.469Z,18.34
2022-09-03T08:21:43.820Z,18.17
2022-09-03T08:32:12.908Z,17.81
2022-09-03T08:42:57.787Z,17.52
2022-09-03T08:53:32.019Z,17.40
2022-09-03T09:04:12.683Z,17.43
2022-09-03T09:14:47.090Z,17.26
2022-09-03T09:25:19.885Z,17.15
2022-09-03T09:35:49.517Z,17.10
2022-09-03T09:46:23.597Z,17.06
2022-09-03T09:57:04.031Z,16.92
2022-09-03T10:07:33.865Z,16.92
2022-09-03T10:18:09.336Z,17.04
2022-09-03T10:28:41.947Z,17.01
2022-09-03T10:39:27.659Z,16.99
2022-09-03T10:50:05.469Z,17.07
2022-09-03T11:00:40.963Z,17.20
2022-09-03T11:11:15.917Z,17.23
2022-09-03T11:21:45.627Z,17.22
2022-09-03T11:32:22.652Z,17.33
2022-09-03T11:42:51.688Z,17.33
2022-09-03T11:53:30.533Z,17.44
2022-09-03T12:04:04.038Z,17.50
2022-09-03T12:14:39.099Z,17.51
2022-09-03T12:25:13.781Z,17.49
2022-09-03T12:35:59.052Z,17.57
2022-09-03T12:46:33.878Z,17.71
2022-09-03T12:57:04.465Z,17.71
2022-09-03T13:07:37.747Z,17.72
2022-09-03T13:18:32.369Z,17.90
2022-09-03T13:29:23.384Z,18.12
2022-09-03T13:39:55.010Z,18.31
2022-09-03T13:50:27.556Z,18.59
2022-09-03T14:01:09.334Z,18.70
2022-09-03T14:11:50.522Z,18.79
2022-09-03T14:22:24.621Z,18.88
2022-09-03T14:32:59.097Z,18.94
2022-09-03T14:43:49.467Z,18.90
2022-09-03T14:54:59.958Z,18.89
2022-09-03T15:05:44.663Z,18.86
2022-09-03T15:16:33.151Z,18.89
2022-09-03T15:27:14.707Z,18.98
2022-09-03T15:37:50.589Z,18.95
2022-09-03T15:48:29.173Z,18.93
2022-09-03T15:59:05.409Z,18.85
2022-09-03T16:10:20.388Z,18.83
2022-09-03T16:20:50.239Z,18.72
2022-09-03T16:31:29.750Z,18.58
2022-09-03T16:42:08.762Z,18.44
2022-09-03T16:53:01.889Z,18.37
2022-09-03T17:04:12.244Z,18.25
2022-09-03T17:15:00.707Z,18.03
2022-09-03T17:25:37.330Z,17.83
2022-09-03T17:36:14.880Z,17.71
2022-09-03T17:46:45.832Z,17.64
2022-09-03T17:57:25.042Z,17.59
2022-09-03T18:08:01.702Z,17.53
2022-09-03T18:18:33.392Z,17.44
2022-09-03T18:29:23.089Z,17.44
2022-09-03T18:40:09.661Z,17.30
2022-09-03T18:51:06.407Z,17.22
2022-09-03T19:01:56.152Z,17.11
2022-09-03T19:12:59.270Z,16.97
2022-09-03T19:23:46.641Z,16.91
2022-09-03T19:34:48.742Z,16.80
2022-09-03T19:45:48.343Z,16.70
2022-09-03T19:56:43.662Z,16.68
2022-09-03T20:07:30.878Z,16.64
2022-09-03T20:18:10.281Z,16.45
2022-09-03T20:29:01.206Z,16.39
2022-09-03T20:39:42.686Z,16.36
2022-09-03T20:50:25.562Z,16.33
2022-09-03T21:01:03.234Z,16.29
2022-09-03T21:11:39.702Z,16.25
2022-09-03T21:22:18.916Z,16.21
2022-09-03T21:32:53.014Z,16.19
2022-09-03T21:43:28.262Z,16.13
2022-09-03T21:54:03.482Z,16.02
2022-09-03T22:04:32.537Z,15.97
2022-09-03T22:15:03.024Z,15.91
2022-09-03T22:25:42.216Z,15.91
2022-09-03T22:36:18.230Z,15.92
2022-09-03T22:46:55.891Z,15.83
2022-09-03T22:57:24.732Z,15.63
2022-09-03T23:07:59.077Z,15.58
2022-09-03T23:18:30.951Z,15.71
2022-09-03T23:29:10.878Z,15.74
2022-09-03T23:39:57.611Z,15.80
2022-09-03T23:50:34.954Z,15.71
